createdAt,value
2019-03-03T00:00:42.932Z,84.84
2019-03-03T00:03:11.412Z,84.63
2019-03-03T00:05:39.889Z,84.65
2019-03-03T00:08:08.383Z,84.68
2019-03-03T00:10:36.972Z,84.54
2019-03-03T00:13:05.444Z,84.79
2019-03-03T00:15:33.990Z,84.85
2019-03-03T00:18:02.443Z,84.82
2019-03-03T00:20:30.904Z,84.64
2019-03-03T00:22:59.357Z,84.87
2019-03-03T00:25:27.831Z,85.04
2019-03-03T00:27:56.293Z,84.93
2019-03-03T00:30:24.919Z,84.70
2019-03-03T00:32:53.364Z,84.39
2019-03-03T00:35:22.525Z,84.71
2019-03-03T00:37:55.599Z,84.59
2019-03-03T00:40:34.742Z,84.37
2019-03-03T00:43:10.375Z,84.13
2019-03-03T00:45:40.493Z,84.43
2019-03-03T00:48:10.615Z,85.00
2019-03-03T00:50:40.712Z,84.34
2019-03-03T00:53:27.198Z,84.66
2019-03-03T00:55:59.681Z,85.27
2019-03-03T00:58:45.106Z,84.82
2019-03-03T01:01:18.289Z,84.92
2019-03-03T01:03:48.394Z,84.39
2019-03-03T01:06:36.596Z,84.27
2019-03-03T01:09:15.325Z,84.23
2019-03-03T01:11:45.437Z,84.57
2019-03-03T01:14:18.295Z,84.58
2019-03-03T01:16:57.455Z,84.95
2019-03-03T01:19:30.393Z,85.01
2019-03-03T01:22:12.479Z,85.37
2019-03-03T01:24:54.217Z,84.78
2019-03-03T01:27:22.829Z,85.31
2019-03-03T01:29:51.347Z,86.25
2019-03-03T01:32:19.892Z,86.98
2019-03-03T01:34:48.356Z,87.56
2019-03-03T01:37:16.993Z,87.91
2019-03-03T01:39:45.459Z,88.48
2019-03-03T01:42:13.919Z,89.03
2019-03-03T01:44:42.389Z,90.00
2019-03-03T01:47:10.860Z,90.64
2019-03-03T01:49:39.343Z,91.14
2019-03-03T01:52:07.791Z,91.80
2019-03-03T01:54:36.276Z,92.34
2019-03-03T01:57:05.063Z,92.09
2019-03-03T01:59:33.543Z,92.32
2019-03-03T02:02:02.047Z,93.08
2019-03-03T02:04:30.518Z,92.97
2019-03-03T02:06:59.003Z,93.28
2019-03-03T02:09:27.605Z,92.62
2019-03-03T02:11:56.253Z,92.85
2019-03-03T02:14:24.747Z,92.39
2019-03-03T02:16:53.220Z,92.41
2019-03-03T02:19:21.675Z,92.47
2019-03-03T02:21:50.258Z,92.56
2019-03-03T02:24:18.712Z,93.05
2019-03-03T02:26:47.172Z,92.82
2019-03-03T02:29:15.631Z,92.94
2019-03-03T02:31:44.091Z,93.07
2019-03-03T02:34:12.569Z,93.59
2019-03-03T02:36:41.059Z,92.94
2019-03-03T02:39:15.466Z,92.07
2019-03-03T02:41:43.917Z,92.09
2019-03-03T02:44:12.353Z,92.02
2019-03-03T02:46:40.825Z,92.62
2019-03-03T02:49:09.282Z,93.38
2019-03-03T02:51:37.984Z,93.67
2019-03-03T02:54:06.584Z,94.32
2019-03-03T02:56:35.039Z,94.85
2019-03-03T02:59:03.500Z,95.37
2019-03-03T03:01:33.593Z,95.87
2019-03-03T03:04:02.050Z,96.59
2019-03-03T03:06:34.922Z,96.73
2019-03-03T03:09:15.670Z,96.82
2019-03-03T03:11:45.760Z,97.09
2019-03-03T03:14:15.850Z,97.44
2019-03-03T03:16:48.673Z,97.92
2019-03-03T03:19:33.957Z,97.35
2019-03-03T03:22:10.134Z,97.55
2019-03-03T03:24:46.039Z,97.82
2019-03-03T03:27:25.437Z,98.08
2019-03-03T03:29:58.075Z,97.77
2019-03-03T03:32:28.162Z,97.44
2019-03-03T03:34:58.290Z,97.23
2019-03-03T03:37:34.036Z,97.71
2019-03-03T03:40:19.374Z,97.68
2019-03-03T03:42:55.364Z,97.74
2019-03-03T03:45:34.244Z,97.92
2019-03-03T03:48:04.346Z,98.00
2019-03-03T03:50:46.001Z,98.35
2019-03-03T03:53:32.546Z,98.61
2019-03-03T03:56:02.650Z,99.03
2019-03-03T03:58:45.179Z,99.57
2019-03-03T04:01:27.259Z,99.67
2019-03-03T04:04:00.028Z,99.74
2019-03-03T04:06:42.043Z,99.45
2019-03-03T04:09:25.445Z,99.60
2019-03-03T04:12:10.491Z,99.40
2019-03-03T04:14:43.033Z,99.37
2019-03-03T04:17:22.020Z,99.54
2019-03-03T04:20:01.061Z,98.57
2019-03-03T04:22:31.144Z,98.24
2019-03-03T04:25:01.252Z,98.39
2019-03-03T04:27:31.337Z,98.71
2019-03-03T04:30:01.427Z,98.66
2019-03-03T04:32:31.517Z,98.73
2019-03-03T04:35:04.428Z,98.40
2019-03-03T04:37:51.010Z,98.50
2019-03-03T04:40:36.331Z,98.61
2019-03-03T04:43:21.836Z,98.44
2019-03-03T04:45:54.568Z,98.02
2019-03-03T04:48:24.709Z,97.31
2019-03-03T04:51:09.770Z,96.75
2019-03-03T04:53:42.510Z,96.82
2019-03-03T04:56:21.069Z,96.49
2019-03-03T04:58:51.138Z,96.52
2019-03-03T05:01:27.390Z,96.47
2019-03-03T05:04:00.414Z,96.38
2019-03-03T05:06:42.438Z,96.27
2019-03-03T05:09:24.398Z,95.73
2019-03-03T05:12:27.644Z,95.28
2019-03-03T05:15:00.420Z,94.99
2019-03-03T05:17:30.545Z,94.30
2019-03-03T05:20:03.284Z,94.13
2019-03-03T05:22:31.710Z,93.86
2019-03-03T05:25:00.319Z,93.63
2019-03-03T05:27:28.777Z,93.38
2019-03-03T05:29:57.242Z,93.02
2019-03-03T05:32:25.690Z,92.57
2019-03-03T05:34:54.168Z,92.55
2019-03-03T05:37:22.621Z,92.26
2019-03-03T05:39:51.095Z,92.43
2019-03-03T05:42:19.580Z,92.45
2019-03-03T05:44:48.035Z,92.49
2019-03-03T05:47:16.490Z,92.65
2019-03-03T05:49:44.927Z,92.97
2019-03-03T05:52:13.382Z,93.55
2019-03-03T05:54:41.825Z,93.56
2019-03-03T05:57:10.242Z,93.36
2019-03-03T05:59:38.707Z,93.20
2019-03-03T06:02:07.135Z,93.53
2019-03-03T06:04:35.558Z,93.38
2019-03-03T06:07:04.034Z,93.25
2019-03-03T06:09:32.511Z,93.19
2019-03-03T06:12:01.034Z,92.87
2019-03-03T06:14:29.478Z,92.83
2019-03-03T06:16:57.942Z,92.43
2019-03-03T06:19:26.373Z,92.94
2019-03-03T06:21:54.832Z,92.41
2019-03-03T06:24:23.306Z,92.43
2019-03-03T06:26:51.824Z,92.45
2019-03-03T06:29:20.276Z,92.65
2019-03-03T06:31:48.666Z,92.74
2019-03-03T06:34:17.121Z,92.52
2019-03-03T06:36:45.578Z,92.17
2019-03-03T06:39:14.054Z,91.41
2019-03-03T06:41:42.480Z,91.24
2019-03-03T06:44:10.920Z,91.35
2019-03-03T06:46:39.368Z,91.03
2019-03-03T06:49:07.796Z,90.90
2019-03-03T06:51:36.240Z,90.98
2019-03-03T06:54:04.780Z,90.56
2019-03-03T06:56:33.246Z,90.23
2019-03-03T06:59:01.699Z,90.15
2019-03-03T07:01:30.136Z,89.73
2019-03-03T07:03:58.590Z,89.42
2019-03-03T07:06:27.058Z,88.92
2019-03-03T07:08:55.562Z,88.46
2019-03-03T07:11:24.000Z,88.36
2019-03-03T07:13:52.992Z,88.37
2019-03-03T07:16:21.456Z,87.53
2019-03-03T07:18:49.914Z,86.89
2019-03-03T07:21:18.374Z,86.46
2019-03-03T07:23:46.808Z,86.35
2019-03-03T07:26:15.254Z,85.34
2019-03-03T07:28:43.716Z,85.03
2019-03-03T07:31:12.190Z,84.85
2019-03-03T07:33:40.712Z,84.41
2019-03-03T07:36:09.158Z,84.01
2019-03-03T07:38:37.610Z,83.73
2019-03-03T07:41:06.056Z,83.31
2019-03-03T07:43:34.520Z,82.88
2019-03-03T07:46:02.952Z,82.51
2019-03-03T07:48:31.433Z,82.03
2019-03-03T07:50:59.864Z,81.73
2019-03-03T07:53:28.322Z,81.44
2019-03-03T07:55:56.768Z,81.20
2019-03-03T07:58:25.244Z,80.72
2019-03-03T08:00:53.718Z,80.22
2019-03-03T08:03:22.154Z,79.85
2019-03-03T08:05:50.623Z,80.00
2019-03-03T08:08:19.062Z,79.13
2019-03-03T08:10:47.512Z,78.50
2019-03-03T08:13:15.971Z,78.44
2019-03-03T08:15:44.425Z,77.82
2019-03-03T08:18:12.856Z,77.20
2019-03-03T08:20:41.310Z,77.89
2019-03-03T08:23:09.776Z,76.71
2019-03-03T08:25:38.216Z,75.54
2019-03-03T08:28:06.651Z,75.54
2019-03-03T08:30:35.113Z,74.78
2019-03-03T08:33:03.729Z,74.78
2019-03-03T08:35:33.202Z,74.34
2019-03-03T08:38:01.664Z,74.34
2019-03-03T08:40:30.112Z,73.83
2019-03-03T08:43:09.232Z,73.44
2019-03-03T08:45:54.292Z,73.33
2019-03-03T08:48:24.403Z,73.22
2019-03-03T08:50:57.199Z,73.34
2019-03-03T08:53:27.275Z,73.34
2019-03-03T08:56:03.610Z,73.70
2019-03-03T08:58:39.931Z,73.66
2019-03-03T09:01:10.480Z,73.45
2019-03-03T09:03:49.572Z,72.86
2019-03-03T09:06:22.324Z,72.86
2019-03-03T09:09:01.496Z,74.04
2019-03-03T09:11:46.893Z,76.00
2019-03-03T09:14:16.974Z,76.00
2019-03-03T09:16:56.770Z,75.54
2019-03-03T09:19:26.850Z,75.18
2019-03-03T09:22:12.068Z,74.87
2019-03-03T09:24:46.333Z,74.53
2019-03-03T09:27:16.426Z,75.22
2019-03-03T09:29:46.516Z,75.22
2019-03-03T09:32:19.556Z,74.33
2019-03-03T09:34:49.667Z,74.45
2019-03-03T09:37:28.489Z,73.74
2019-03-03T09:40:15.154Z,73.74
2019-03-03T09:42:50.647Z,73.28
2019-03-03T09:45:20.754Z,73.06
2019-03-03T09:47:56.828Z,73.06
2019-03-03T09:50:26.919Z,72.40
2019-03-03T09:53:13.536Z,72.49
2019-03-03T09:55:46.604Z,72.01
2019-03-03T09:58:19.388Z,71.69
2019-03-03T10:00:55.674Z,71.62
2019-03-03T10:03:31.557Z,72.17
2019-03-03T10:06:15.455Z,73.17
2019-03-03T10:09:01.754Z,73.91
2019-03-03T10:11:34.680Z,73.57
2019-03-03T10:14:04.778Z,73.41
2019-03-03T10:16:46.835Z,73.07
2019-03-03T10:19:16.911Z,73.25
2019-03-03T10:21:49.957Z,72.75
2019-03-03T10:24:36.272Z,72.50
2019-03-03T10:27:12.900Z,73.06
2019-03-03T10:29:42.997Z,73.33
2019-03-03T10:32:13.076Z,72.69
2019-03-03T10:34:59.670Z,72.54
2019-03-03T10:37:44.533Z,72.21
2019-03-03T10:40:20.124Z,72.75
2019-03-03T10:42:50.242Z,72.50
2019-03-03T10:45:38.332Z,72.26
2019-03-03T10:48:08.411Z,71.66
2019-03-03T10:50:44.232Z,71.57
2019-03-03T10:53:14.310Z,71.71
2019-03-03T10:55:44.402Z,72.76
2019-03-03T10:58:26.777Z,73.99
2019-03-03T11:00:59.968Z,74.46
2019-03-03T11:03:32.961Z,75.07
2019-03-03T11:06:03.219Z,74.22
2019-03-03T11:08:36.001Z,73.90
2019-03-03T11:11:19.241Z,73.50
2019-03-03T11:13:49.666Z,72.97
2019-03-03T11:16:32.035Z,72.84
2019-03-03T11:19:10.721Z,72.41
2019-03-03T11:21:40.844Z,72.41
2019-03-03T11:24:10.952Z,72.07
2019-03-03T11:26:57.238Z,71.33
2019-03-03T11:29:27.344Z,71.42
2019-03-03T11:32:15.730Z,71.28
2019-03-03T11:34:45.841Z,71.47
2019-03-03T11:37:15.952Z,71.64
2019-03-03T11:39:46.076Z,71.90
2019-03-03T11:42:19.806Z,71.13
2019-03-03T11:45:06.583Z,70.47
2019-03-03T11:47:36.687Z,70.47
2019-03-03T11:50:15.788Z,70.81
2019-03-03T11:52:51.834Z,71.50
2019-03-03T11:55:37.059Z,71.75
2019-03-03T11:58:09.939Z,72.29
2019-03-03T12:00:40.030Z,72.95
2019-03-03T12:03:10.140Z,72.95
2019-03-03T12:05:40.272Z,74.19
2019-03-03T12:08:22.360Z,74.19
2019-03-03T12:10:55.160Z,74.13
2019-03-03T12:13:25.274Z,74.88
2019-03-03T12:16:08.083Z,74.88
2019-03-03T12:18:54.598Z,75.50
2019-03-03T12:21:30.460Z,76.42
2019-03-03T12:24:18.780Z,76.49
2019-03-03T12:26:48.881Z,77.04
2019-03-03T12:29:35.128Z,77.72
2019-03-03T12:32:05.209Z,76.84
2019-03-03T12:34:44.467Z,76.88
2019-03-03T12:37:17.569Z,77.24
2019-03-03T12:39:47.661Z,77.11
2019-03-03T12:42:26.577Z,76.58
2019-03-03T12:45:11.631Z,76.86
2019-03-03T12:47:47.704Z,76.25
2019-03-03T12:50:33.093Z,76.82
2019-03-03T12:53:08.920Z,78.08
2019-03-03T12:55:41.419Z,76.84
2019-03-03T12:58:11.518Z,77.21
2019-03-03T13:00:56.389Z,76.41
2019-03-03T13:03:29.432Z,76.51
2019-03-03T13:06:08.062Z,76.44
2019-03-03T13:08:43.877Z,76.44
2019-03-03T13:11:30.151Z,76.13
2019-03-03T13:14:12.263Z,77.03
2019-03-03T13:16:48.054Z,76.45
2019-03-03T13:19:18.333Z,76.37
2019-03-03T13:22:04.680Z,77.06
2019-03-03T13:24:37.199Z,77.21
2019-03-03T13:27:22.097Z,77.47
2019-03-03T13:29:54.907Z,76.94
2019-03-03T13:32:30.929Z,76.94
2019-03-03T13:35:07.005Z,78.35
2019-03-03T13:37:37.089Z,78.35
2019-03-03T13:40:21.665Z,76.78
2019-03-03T13:42:58.856Z,75.88
2019-03-03T13:45:29.373Z,76.12
2019-03-03T13:47:57.887Z,76.69
2019-03-03T13:50:26.563Z,76.04
2019-03-03T13:52:55.093Z,75.38
2019-03-03T13:55:23.706Z,75.04
2019-03-03T13:57:52.369Z,75.04
2019-03-03T14:00:22.895Z,75.39
2019-03-03T14:02:51.496Z,74.70
2019-03-03T14:05:21.518Z,74.10
2019-03-03T14:07:50.133Z,73.75
2019-03-03T14:10:18.621Z,73.44
2019-03-03T14:12:47.219Z,73.44
2019-03-03T14:15:17.630Z,73.05
2019-03-03T14:17:46.106Z,73.61
2019-03-03T14:20:17.624Z,73.82
2019-03-03T14:22:46.251Z,73.38
2019-03-03T14:25:15.422Z,74.00
2019-03-03T14:27:44.118Z,74.34
2019-03-03T14:30:17.893Z,74.90
2019-03-03T14:32:46.399Z,74.98
2019-03-03T14:35:16.323Z,75.32
2019-03-03T14:37:44.753Z,76.27
2019-03-03T14:40:15.973Z,76.33
2019-03-03T14:42:44.409Z,76.33
2019-03-03T14:45:17.914Z,77.05
2019-03-03T14:47:46.563Z,77.58
2019-03-03T14:50:20.445Z,77.72
2019-03-03T14:52:51.175Z,78.22
2019-03-03T14:55:20.354Z,78.46
2019-03-03T14:57:48.863Z,78.60
2019-03-03T15:00:29.100Z,79.07
2019-03-03T15:02:59.014Z,79.98
2019-03-03T15:05:27.553Z,79.98
2019-03-03T15:07:56.102Z,80.69
2019-03-03T15:10:24.555Z,81.50
2019-03-03T15:12:53.111Z,82.13
2019-03-03T15:15:27.514Z,82.96
2019-03-03T15:17:56.015Z,82.47
2019-03-03T15:20:26.839Z,82.71
2019-03-03T15:22:55.227Z,83.37
2019-03-03T15:25:23.762Z,83.75
2019-03-03T15:27:52.296Z,83.97
2019-03-03T15:30:21.876Z,84.29
2019-03-03T15:32:50.663Z,84.62
2019-03-03T15:35:19.261Z,85.04
2019-03-03T15:37:47.983Z,85.88
2019-03-03T15:40:21.993Z,86.56
2019-03-03T15:42:50.423Z,86.84
2019-03-03T15:45:23.331Z,87.05
2019-03-03T15:47:51.775Z,87.59
2019-03-03T15:50:22.229Z,88.22
2019-03-03T15:52:50.775Z,88.28
2019-03-03T15:55:20.943Z,88.93
2019-03-03T15:57:49.415Z,88.72
2019-03-03T16:00:26.412Z,89.39
2019-03-03T16:02:54.879Z,89.97
2019-03-03T16:05:23.311Z,89.81
2019-03-03T16:07:51.762Z,89.72
2019-03-03T16:10:24.897Z,90.15
2019-03-03T16:12:53.288Z,90.11
2019-03-03T16:15:21.794Z,91.00
2019-03-03T16:17:50.237Z,91.00
2019-03-03T16:20:20.331Z,90.97
2019-03-03T16:22:48.846Z,90.74
2019-03-03T16:25:24.967Z,90.93
2019-03-03T16:27:53.415Z,91.01
2019-03-03T16:30:25.623Z,91.56
2019-03-03T16:32:54.064Z,91.18
2019-03-03T16:35:22.618Z,91.52
2019-03-03T16:37:51.059Z,91.52
2019-03-03T16:40:27.055Z,91.55
2019-03-03T16:42:55.510Z,91.83
2019-03-03T16:45:24.045Z,91.83
2019-03-03T16:47:52.515Z,92.08
2019-03-03T16:50:22.096Z,92.37
2019-03-03T16:52:50.607Z,92.60
2019-03-03T16:55:20.225Z,92.60
2019-03-03T16:57:48.743Z,92.19
2019-03-03T17:00:25.845Z,91.70
2019-03-03T17:02:54.312Z,91.62
2019-03-03T17:05:25.143Z,91.46
2019-03-03T17:07:53.617Z,91.86
2019-03-03T17:10:22.053Z,91.59
2019-03-03T17:12:50.493Z,92.19
2019-03-03T17:15:24.612Z,92.19
2019-03-03T17:17:53.077Z,91.50
2019-03-03T17:20:21.512Z,91.50
2019-03-03T17:22:50.226Z,92.03
2019-03-03T17:25:26.254Z,91.27
2019-03-03T17:27:54.712Z,91.27
2019-03-03T17:30:24.295Z,91.22
2019-03-03T17:32:52.803Z,91.03
2019-03-03T17:35:21.511Z,91.03
2019-03-03T17:37:49.972Z,91.03
2019-03-03T17:40:26.634Z,91.03
2019-03-03T17:42:55.362Z,91.04
2019-03-03T17:45:24.645Z,91.04
2019-03-03T17:47:53.725Z,91.40
2019-03-03T17:50:26.934Z,90.63
2019-03-03T17:52:55.475Z,90.68
2019-03-03T17:55:23.971Z,90.79
2019-03-03T17:57:52.438Z,90.42
2019-03-03T18:00:27.177Z,91.27
2019-03-03T18:02:55.767Z,90.75
2019-03-03T18:05:24.223Z,91.34
2019-03-03T18:07:52.798Z,90.69
2019-03-03T18:10:21.284Z,91.11
2019-03-03T18:12:49.916Z,91.11
2019-03-03T18:15:18.631Z,90.01
2019-03-03T18:17:47.124Z,90.01
2019-03-03T18:20:22.206Z,89.40
2019-03-03T18:22:50.724Z,90.02
2019-03-03T18:25:20.240Z,89.62
2019-03-03T18:27:48.679Z,89.60
2019-03-03T18:30:19.361Z,89.60
2019-03-03T18:32:48.085Z,89.38
2019-03-03T18:35:16.794Z,89.38
2019-03-03T18:37:45.379Z,89.69
2019-03-03T18:40:19.160Z,89.57
2019-03-03T18:42:48.048Z,89.57
2019-03-03T18:45:18.223Z,89.19
2019-03-03T18:47:46.943Z,89.45
2019-03-03T18:50:28.904Z,89.45
2019-03-03T18:52:59.681Z,89.09
2019-03-03T18:55:27.532Z,89.04
2019-03-03T18:57:56.006Z,89.21
2019-03-03T19:00:26.272Z,89.09
2019-03-03T19:02:54.741Z,89.09
2019-03-03T19:05:23.493Z,88.54
2019-03-03T19:07:52.471Z,88.39
2019-03-03T19:10:25.172Z,88.89
2019-03-03T19:12:53.894Z,88.98
2019-03-03T19:15:22.362Z,88.98
2019-03-03T19:17:50.825Z,89.06
2019-03-03T19:20:21.158Z,89.35
2019-03-03T19:22:50.166Z,88.99
2019-03-03T19:25:18.899Z,88.64
